Time;durP1;ratioP1;P1;durP2;ratioP2;P2;SDS_P1;SDS_P2;PMS_P1;PMS_P2;Temp;Humidity;BMP_temperature;BMP_pressure;BME280_temperature;BME280_humidity;BME280_pressure;Samples;Min_cycle;Max_cycle;Signal;HPM_P1;HPM_P2
2022/07/26 00:02:15;;;;;;;3.63;2.28;;;16.70;1.00;;;;;;5035450;28;20049;-82
2022/07/26 00:04:41;;;;;;;4.70;1.95;;;16.70;1.00;;;;;;5036503;28;20024;-82
2022/07/26 00:07:06;;;;;;;7.47;2.30;;;16.80;1.00;;;;;;5015805;28;20026;-81
2022/07/26 00:09:32;;;;;;;6.72;2.20;;;16.80;1.00;;;;;;5016146;28;20030;-82
2022/07/26 00:11:57;;;;;;;5.45;2.50;;;16.90;6.60;;;;;;5028387;28;20029;-82
2022/07/26 00:14:23;;;;;;;2.22;1.88;;;17.00;4.70;;;;;;5033449;28;20029;-82
2022/07/26 00:16:49;;;;;;;5.28;2.22;;;17.10;1.00;;;;;;5026154;28;20066;-82
2022/07/26 00:19:14;;;;;;;2.83;2.00;;;17.30;1.00;;;;;;5046995;28;20064;-82
2022/07/26 00:21:40;;;;;;;2.95;2.10;;;17.20;1.00;;;;;;5015580;28;20033;-81
2022/07/26 00:24:06;;;;;;;7.60;2.72;;;17.30;1.00;;;;;;5015894;28;20022;-82
2022/07/26 00:26:32;;;;;;;5.45;2.47;;;17.30;1.00;;;;;;5030318;28;20058;-81
2022/07/26 00:28:58;;;;;;;3.67;2.33;;;17.30;1.00;;;;;;5017322;28;20101;-82
2022/07/26 00:31:24;;;;;;;4.07;2.45;;;17.30;1.00;;;;;;5016365;28;20022;-82
2022/07/26 00:33:49;;;;;;;4.13;2.40;;;17.50;1.00;;;;;;5041607;23;20077;-78
2022/07/26 00:36:15;;;;;;;4.82;2.25;;;17.50;1.00;;;;;;5032298;28;20044;-75
2022/07/26 00:38:41;;;;;;;5.63;2.33;;;17.50;1.00;;;;;;5030320;28;20037;-76
2022/07/26 00:41:08;;;;;;;4.65;2.15;;;17.50;1.00;;;;;;5032319;28;20084;-75
2022/07/26 00:43:34;;;;;;;4.85;2.20;;;17.50;1.00;;;;;;5032477;28;20109;-75
2022/07/26 00:46:00;;;;;;;3.15;2.03;;;17.50;1.00;;;;;;5032249;28;20469;-75
2022/07/26 00:48:26;;;;;;;4.28;1.75;;;17.40;1.00;;;;;;5032280;28;20018;-75
2022/07/26 00:50:54;;;;;;;6.10;2.15;;;17.40;1.00;;;;;;5032210;28;20030;-75
2022/07/26 00:53:22;;;;;;;5.28;1.85;;;17.30;1.00;;;;;;5032238;28;20072;-76
2022/07/26 00:55:48;;;;;;;4.30;1.48;;;17.30;1.00;;;;;;5031979;28;20024;-75
2022/07/26 00:58:14;;;;;;;3.88;1.83;;;17.40;1.00;;;;;;5030804;28;20040;-75
2022/07/26 01:00:40;;;;;;;6.30;1.80;;;17.40;1.00;;;;;;5032070;28;20051;-75
2022/07/26 01:03:05;;;;;;;4.63;1.88;;;17.50;1.00;;;;;;5032054;28;20025;-75
2022/07/26 01:05:31;;;;;;;6.03;2.10;;;17.50;1.00;;;;;;5032001;28;20043;-75
2022/07/26 01:07:57;;;;;;;4.55;1.75;;;17.50;1.00;;;;;;5032024;28;20033;-75
2022/07/26 01:10:23;;;;;;;7.53;1.75;;;17.60;1.00;;;;;;5031937;28;20028;-75
2022/07/26 01:12:49;;;;;;;6.72;1.70;;;17.60;1.00;;;;;;5031933;28;20052;-75
2022/07/26 01:15:17;;;;;;;5.70;1.45;;;17.70;1.00;;;;;;5031824;28;20512;-76
2022/07/26 01:17:43;;;;;;;4.38;1.98;;;17.70;1.00;;;;;;5032030;28;20167;-75
2022/07/26 01:20:10;;;;;;;3.35;1.75;;;17.70;1.00;;;;;;5032242;28;20464;-75
2022/07/26 01:22:36;;;;;;;4.85;2.38;;;17.60;1.00;;;;;;5032206;28;20092;-76
2022/07/26 01:25:03;;;;;;;4.18;2.15;;;17.70;1.00;;;;;;5032011;28;20155;-75
2022/07/26 01:27:28;;;;;;;3.47;2.20;;;17.80;1.00;;;;;;5031941;28;20038;-75
2022/07/26 01:29:54;;;;;;;5.22;2.50;;;17.80;1.00;;;;;;5032044;28;20036;-76
2022/07/26 01:32:19;;;;;;;5.63;2.83;;;17.70;1.00;;;;;;5042169;28;20045;-76
2022/07/26 01:34:45;;;;;;;5.82;2.63;;;17.90;1.00;;;;;;5012019;28;20036;-75
2022/07/26 01:37:11;;;;;;;4.45;1.60;;;18.00;1.00;;;;;;4992725;28;20022;-76
2022/07/26 01:39:37;;;;;;;2.42;1.60;;;17.90;1.00;;;;;;4993516;28;20030;-76
2022/07/26 01:42:02;;;;;;;5.45;1.58;;;17.80;8.50;;;;;;5011527;28;20049;-76
2022/07/26 01:44:28;;;;;;;3.35;1.20;;;17.70;9.70;;;;;;5012104;28;20125;-76
2022/07/26 01:46:53;;;;;;;2.80;1.10;;;17.50;12.00;;;;;;5011892;28;20110;-76
2022/07/26 01:49:19;;;;;;;2.35;1.08;;;17.50;9.10;;;;;;5012615;28;20076;-76
2022/07/26 01:51:45;;;;;;;1.60;0.82;;;17.40;9.10;;;;;;5017914;28;20032;-76
2022/07/26 01:54:10;;;;;;;5.75;1.27;;;17.40;5.60;;;;;;5035278;28;20022;-76
2022/07/26 01:56:36;;;;;;;8.20;1.33;;;17.40;1.00;;;;;;5015404;28;20106;-76
2022/07/26 01:59:02;;;;;;;5.05;1.25;;;17.40;1.00;;;;;;5014230;28;20029;-76
2022/07/26 02:01:28;;;;;;;1.02;0.80;;;17.40;1.00;;;;;;5015197;28;20025;-76
2022/07/26 02:03:53;;;;;;;4.05;1.20;;;17.30;1.00;;;;;;5014051;28;20032;-76
2022/07/26 02:06:19;;;;;;;6.63;2.15;;;17.30;1.00;;;;;;5013761;28;20029;-76
2022/07/26 02:08:44;;;;;;;4.57;1.33;;;17.30;1.00;;;;;;5034207;28;20037;-75
2022/07/26 02:11:10;;;;;;;4.57;1.10;;;17.30;1.00;;;;;;5034908;28;20043;-76
2022/07/26 02:13:38;;;;;;;11.23;1.35;;;17.30;1.00;;;;;;5016060;28;20025;-76
2022/07/26 02:16:06;;;;;;;3.10;0.80;;;17.20;1.00;;;;;;5013587;28;20068;-76
2022/07/26 02:18:32;;;;;;;3.65;1.05;;;17.20;1.00;;;;;;5014862;28;20497;-75
2022/07/26 02:21:00;;;;;;;2.90;0.63;;;17.20;1.00;;;;;;5015002;28;20026;-76
2022/07/26 02:23:26;;;;;;;4.82;0.80;;;17.20;1.00;;;;;;5014880;28;20474;-76
2022/07/26 02:25:53;;;;;;;7.53;1.80;;;17.20;1.00;;;;;;5014512;28;20532;-75
2022/07/26 02:28:18;;;;;;;5.88;1.17;;;17.10;1.00;;;;;;5013419;28;20033;-76
2022/07/26 02:30:45;;;;;;;2.95;0.88;;;17.10;1.00;;;;;;5014695;28;20029;-75
2022/07/26 02:33:11;;;;;;;4.80;1.00;;;16.90;1.00;;;;;;5014330;28;20046;-75
2022/07/26 02:35:37;;;;;;;6.38;0.90;;;16.80;1.00;;;;;;5014575;28;20029;-75
2022/07/26 02:38:07;;;;;;;6.50;0.85;;;16.80;1.00;;;;;;5014577;28;20478;-75
2022/07/26 02:40:34;;;;;;;4.85;0.93;;;16.90;1.00;;;;;;5014507;28;20072;-76
2022/07/26 02:43:00;;;;;;;1.17;0.60;;;16.80;1.00;;;;;;5014589;28;20014;-76
2022/07/26 02:45:26;;;;;;;2.42;0.50;;;16.70;1.00;;;;;;5014282;28;20029;-76
2022/07/26 02:47:53;;;;;;;2.67;0.65;;;16.60;1.00;;;;;;5014449;28;20052;-76
2022/07/26 02:50:20;;;;;;;3.80;0.98;;;16.50;1.00;;;;;;5014406;28;20054;-75
2022/07/26 02:52:46;;;;;;;4.47;0.73;;;16.40;1.00;;;;;;5012965;28;20116;-75
2022/07/26 02:55:16;;;;;;;6.32;0.95;;;16.30;1.00;;;;;;5014298;28;20500;-76
2022/07/26 02:57:42;;;;;;;4.07;0.75;;;16.30;1.00;;;;;;5014207;28;20667;-75
2022/07/26 03:00:10;;;;;;;4.30;0.75;;;16.30;1.00;;;;;;5013527;28;20643;-75
2022/07/26 03:02:36;;;;;;;3.33;0.70;;;16.20;1.00;;;;;;5012729;28;20461;-76
2022/07/26 03:05:03;;;;;;;5.07;1.17;;;16.20;1.00;;;;;;5014093;28;20084;-76
2022/07/26 03:07:28;;;;;;;2.63;0.80;;;16.40;1.00;;;;;;5017081;28;20084;-75
2022/07/26 03:09:54;;;;;;;2.13;0.60;;;16.30;1.00;;;;;;5023854;28;20029;-75
2022/07/26 03:12:19;;;;;;;3.47;1.00;;;16.40;1.00;;;;;;5013904;28;20030;-75
2022/07/26 03:14:45;;;;;;;4.28;0.70;;;16.30;1.00;;;;;;5013992;28;20105;-75
2022/07/26 03:17:11;;;;;;;5.38;0.70;;;16.40;1.00;;;;;;5013891;28;20068;-76
2022/07/26 03:19:36;;;;;;;6.93;1.27;;;16.40;1.00;;;;;;5013854;28;20026;-75
2022/07/26 03:22:02;;;;;;;3.58;0.85;;;16.40;1.00;;;;;;5012447;28;20026;-76
2022/07/26 03:24:27;;;;;;;2.75;0.50;;;16.40;1.00;;;;;;5013825;28;20029;-75
2022/07/26 03:26:53;;;;;;;5.45;0.60;;;16.40;1.00;;;;;;5013713;28;20109;-75
2022/07/26 03:29:19;;;;;;;3.42;0.65;;;16.40;1.00;;;;;;5013734;28;20553;-76
2022/07/26 03:31:44;;;;;;;1.45;0.50;;;16.40;1.00;;;;;;5013575;28;20374;-75
2022/07/26 03:34:10;;;;;;;3.17;0.70;;;16.50;1.00;;;;;;5013375;28;20045;-75
2022/07/26 03:36:35;;;;;;;4.80;0.63;;;16.40;1.00;;;;;;5012128;28;20049;-75
2022/07/26 03:39:01;;;;;;;3.45;0.63;;;16.60;1.00;;;;;;5013561;28;20026;-75
2022/07/26 03:41:27;;;;;;;3.15;0.40;;;16.40;1.00;;;;;;5013349;28;20025;-75
2022/07/26 03:43:52;;;;;;;2.08;0.40;;;16.40;1.00;;;;;;5013429;28;20100;-75
2022/07/26 03:46:18;;;;;;;2.17;0.40;;;16.40;1.00;;;;;;5013192;28;20026;-75
2022/07/26 03:48:43;;;;;;;3.75;0.70;;;16.30;1.00;;;;;;5013010;28;20018;-75
2022/07/26 03:51:09;;;;;;;4.78;0.52;;;16.30;1.00;;;;;;5014857;28;20061;-75
2022/07/26 03:53:34;;;;;;;5.78;0.85;;;16.30;1.00;;;;;;5014116;28;20703;-75
2022/07/26 03:58:44;;;;;;;1.80;0.40;;;16.30;1.00;;;;;;5014539;28;20100;-76
2022/07/26 04:01:10;;;;;;;2.78;0.40;;;16.40;1.00;;;;;;5013017;28;20034;-76
2022/07/26 04:03:35;;;;;;;1.50;0.25;;;16.40;1.00;;;;;;5012770;28;20022;-76
2022/07/26 04:06:01;;;;;;;2.47;0.68;;;16.10;1.00;;;;;;5012799;28;20053;-76
2022/07/26 04:08:26;;;;;;;3.63;0.43;;;16.10;1.00;;;;;;5009458;28;20109;-76
2022/07/26 04:10:52;;;;;;;1.55;0.50;;;16.00;1.00;;;;;;5007057;28;20454;-76
2022/07/26 04:13:19;;;;;;;2.05;0.95;;;16.00;1.00;;;;;;5011979;28;20049;-76
2022/07/26 04:15:45;;;;;;;2.08;0.43;;;16.00;1.00;;;;;;5012824;28;20030;-76
2022/07/26 04:18:10;;;;;;;0.88;0.25;;;16.00;1.00;;;;;;5012797;28;20029;-76
2022/07/26 04:20:36;;;;;;;2.20;0.60;;;16.00;1.00;;;;;;5012830;28;20080;-76
2022/07/26 04:23:02;;;;;;;1.67;0.52;;;16.00;1.00;;;;;;5012712;28;20030;-76
2022/07/26 04:25:27;;;;;;;2.78;0.40;;;16.00;1.00;;;;;;5012711;28;20064;-76
2022/07/26 04:27:53;;;;;;;2.35;0.50;;;16.00;1.00;;;;;;5012703;28;20034;-76
2022/07/26 04:30:18;;;;;;;3.22;0.80;;;16.10;1.00;;;;;;5012810;28;20033;-76
2022/07/26 04:32:44;;;;;;;3.70;0.73;;;15.90;1.00;;;;;;5012310;28;20050;-76
2022/07/26 04:35:10;;;;;;;5.68;0.75;;;16.10;1.00;;;;;;5012730;28;20029;-76
2022/07/26 04:37:40;;;;;;;3.28;0.50;;;16.00;1.00;;;;;;5012545;28;20101;-76
2022/07/26 04:40:06;;;;;;;;;;;15.90;1.00;;;;;;5013179;28;20022;-76
2022/07/26 04:42:32;;;;;;;3.17;0.60;;;16.00;1.00;;;;;;5010977;28;19928;-76
2022/07/26 04:44:57;;;;;;;3.90;0.75;;;16.00;1.00;;;;;;5012722;28;20048;-76
2022/07/26 04:47:23;;;;;;;2.67;0.50;;;16.00;1.00;;;;;;5012418;28;20083;-76
2022/07/26 04:49:48;;;;;;;4.63;0.50;;;16.00;1.00;;;;;;5012386;28;20061;-76
2022/07/26 04:52:14;;;;;;;5.00;0.70;;;16.00;1.00;;;;;;5012356;28;20033;-77
2022/07/26 04:54:39;;;;;;;1.95;0.50;;;16.10;1.00;;;;;;4992803;28;20034;-76
2022/07/26 04:57:05;;;;;;;3.30;0.63;;;16.10;1.00;;;;;;5002664;28;21225;-76
2022/07/26 04:59:30;;;;;;;1.85;0.22;;;16.10;1.00;;;;;;5012311;28;20581;-76
2022/07/26 05:01:56;;;;;;;2.92;0.32;;;16.10;1.00;;;;;;5012376;28;20022;-77
2022/07/26 05:04:21;;;;;;;4.60;0.60;;;16.20;1.00;;;;;;5010908;28;20026;-77
2022/07/26 05:06:47;;;;;;;2.03;0.40;;;16.20;1.00;;;;;;5012388;28;20018;-76
2022/07/26 05:09:12;;;;;;;0.57;0.20;;;16.20;1.00;;;;;;5012358;28;20041;-77
2022/07/26 05:11:38;;;;;;;2.35;0.25;;;16.20;1.00;;;;;;5011036;28;20026;-76
2022/07/26 05:14:04;;;;;;;1.02;0.30;;;16.30;1.00;;;;;;5012267;28;20057;-77
2022/07/26 05:16:29;;;;;;;1.95;0.20;;;16.30;1.00;;;;;;5012312;28;20445;-77
2022/07/26 05:18:55;;;;;;;1.83;0.73;;;16.40;1.00;;;;;;5004893;28;20484;-77
2022/07/26 05:21:21;;;;;;;4.78;0.38;;;16.50;1.00;;;;;;4996356;28;20503;-76
2022/07/26 05:23:46;;;;;;;0.82;0.20;;;16.60;1.00;;;;;;4993755;28;20026;-77
2022/07/26 05:26:12;;;;;;;2.88;0.40;;;16.70;1.00;;;;;;4996421;28;20045;-76
2022/07/26 05:28:38;;;;;;;0.82;0.22;;;16.80;1.00;;;;;;5014283;28;20028;-76
2022/07/26 05:31:04;;;;;;;1.90;0.60;;;16.90;1.00;;;;;;5024643;28;20053;-76
2022/07/26 05:33:30;;;;;;;2.38;0.40;;;16.90;1.00;;;;;;5026777;28;20081;-77
2022/07/26 05:35:55;;;;;;;4.20;0.25;;;17.20;1.00;;;;;;5015979;28;20069;-76
2022/07/26 05:38:21;;;;;;;1.65;0.47;;;17.30;1.00;;;;;;5014620;28;20018;-77
2022/07/26 05:40:47;;;;;;;1.25;0.50;;;17.50;1.00;;;;;;5015742;28;20014;-76
2022/07/26 05:43:12;;;;;;;5.90;0.70;;;17.60;1.00;;;;;;5015687;28;20026;-77
2022/07/26 05:45:38;;;;;;;3.13;0.35;;;17.70;1.00;;;;;;5015580;28;20413;-76
2022/07/26 05:48:04;;;;;;;3.72;0.50;;;17.70;1.00;;;;;;5012058;28;20022;-77
2022/07/26 05:50:29;;;;;;;3.17;0.75;;;17.60;1.00;;;;;;5014585;28;20354;-76
2022/07/26 05:52:55;;;;;;;5.43;0.60;;;17.50;1.00;;;;;;5015437;28;20026;-77
2022/07/26 05:55:21;;;;;;;4.03;0.60;;;17.50;1.00;;;;;;5015509;28;20030;-76
2022/07/26 05:57:47;;;;;;;5.35;0.75;;;17.70;1.00;;;;;;5015342;28;20049;-76
2022/07/26 06:00:14;;;;;;;3.67;0.85;;;17.70;1.00;;;;;;5015302;28;20022;-76
2022/07/26 06:02:40;;;;;;;1.30;0.63;;;17.70;1.00;;;;;;5015364;28;20031;-76
2022/07/26 06:05:06;;;;;;;2.97;0.40;;;17.70;1.00;;;;;;5002323;28;20026;-76
2022/07/26 06:07:32;;;;;;;5.07;0.52;;;17.80;1.00;;;;;;5015043;28;20030;-76
2022/07/26 06:09:58;;;;;;;2.40;0.55;;;17.70;1.00;;;;;;5015210;28;20498;-76
2022/07/26 06:12:23;;;;;;;5.63;0.80;;;17.50;1.00;;;;;;5015140;28;20018;-76
2022/07/26 06:14:49;;;;;;;4.47;0.40;;;17.50;1.00;;;;;;5015039;28;20018;-76
2022/07/26 06:17:14;;;;;;;4.10;0.52;;;17.40;1.00;;;;;;5015418;28;20093;-76
2022/07/26 06:19:40;;;;;;;4.35;0.73;;;17.40;1.00;;;;;;5034672;28;20148;-76
2022/07/26 06:22:06;;;;;;;2.63;0.35;;;17.50;1.00;;;;;;5020639;28;20022;-76
2022/07/26 06:24:31;;;;;;;1.85;0.40;;;17.70;99.90;;;;;;5014970;28;20026;-77
2022/07/26 06:26:57;;;;;;;2.45;0.65;;;18.00;99.90;;;;;;5014899;28;20454;-76
2022/07/26 06:29:23;;;;;;;3.72;0.25;;;18.30;99.90;;;;;;5014734;28;20034;-76
2022/07/26 06:31:49;;;;;;;1.70;0.50;;;18.40;99.90;;;;;;5014834;28;20033;-76
2022/07/26 06:34:15;;;;;;;3.30;0.43;;;18.40;99.90;;;;;;5014397;28;20057;-75
2022/07/26 06:36:41;;;;;;;3.25;0.50;;;18.20;99.90;;;;;;5013509;28;20070;-76
2022/07/26 06:39:06;;;;;;;4.60;0.88;;;17.70;1.00;;;;;;5014802;28;20032;-77
2022/07/26 06:41:32;;;;;;;2.67;0.75;;;16.90;1.00;;;;;;5014571;28;20030;-77
2022/07/26 06:43:57;;;;;;;4.70;0.60;;;16.60;1.00;;;;;;5014945;28;20022;-76
2022/07/26 06:46:23;;;;;;;2.78;0.60;;;16.60;1.00;;;;;;5014305;28;20084;-76
2022/07/26 06:48:49;;;;;;;5.88;0.98;;;16.50;1.00;;;;;;5014445;28;20441;-76
2022/07/26 06:51:14;;;;;;;4.22;0.93;;;16.50;1.00;;;;;;5014191;28;20106;-76
2022/07/26 06:53:40;;;;;;;8.35;1.20;;;16.60;1.00;;;;;;5014074;28;20022;-77
2022/07/26 06:56:06;;;;;;;2.75;0.60;;;17.00;1.00;;;;;;5013961;28;20481;-77
2022/07/26 06:58:32;;;;;;;4.03;0.50;;;17.60;1.00;;;;;;5013477;28;20022;-77
2022/07/26 07:00:57;;;;;;;4.75;0.50;;;19.90;1.00;;;;;;5013617;28;20030;-77
2022/07/26 07:03:23;;;;;;;6.78;0.85;;;20.10;99.90;;;;;;5013890;28;20033;-77
2022/07/26 07:05:48;;;;;;;5.28;0.73;;;20.00;99.90;;;;;;5013711;28;20022;-77
2022/07/26 07:08:14;;;;;;;5.90;0.90;;;20.00;99.90;;;;;;5014039;28;20037;-76
2022/07/26 07:10:40;;;;;;;7.70;1.02;;;20.20;99.90;;;;;;5013804;28;20026;-77
2022/07/26 07:13:05;;;;;;;4.53;0.73;;;21.00;99.90;;;;;;5013916;28;20465;-77
2022/07/26 07:15:31;;;;;;;1.65;0.65;;;22.30;99.90;;;;;;5013676;28;20022;-77
2022/07/26 07:17:57;;;;;;;2.25;0.30;;;22.60;99.90;;;;;;5013632;28;20021;-77
2022/07/26 07:20:22;;;;;;;2.67;0.50;;;22.40;99.90;;;;;;5013858;28;20088;-77
2022/07/26 07:22:48;;;;;;;2.78;0.40;;;22.90;99.90;;;;;;5013660;28;20022;-77
2022/07/26 07:25:14;;;;;;;1.65;0.52;;;22.90;99.90;;;;;;5013245;28;20035;-77
2022/07/26 07:27:39;;;;;;;3.70;0.50;;;21.90;99.90;;;;;;5013214;28;20022;-77
2022/07/26 07:30:07;;;;;;;6.18;0.80;;;21.70;99.90;;;;;;5012939;28;20034;-77
2022/07/26 07:32:32;;;;;;;3.92;0.50;;;21.30;99.90;;;;;;5012962;28;20046;-77
2022/07/26 07:34:58;;;;;;;4.63;0.52;;;20.70;99.90;;;;;;5011772;28;20022;-77
2022/07/26 07:37:24;;;;;;;2.85;0.40;;;20.50;99.90;;;;;;5012980;28;20038;-77
2022/07/26 07:39:49;;;;;;;3.28;0.70;;;20.00;99.90;;;;;;5011716;28;20029;-77
2022/07/26 07:42:15;;;;;;;3.28;0.50;;;20.30;99.90;;;;;;5012643;28;20024;-77
2022/07/26 07:44:40;;;;;;;2.33;0.40;;;20.60;99.90;;;;;;5013370;28;20022;-77
2022/07/26 07:47:07;;;;;;;3.28;0.50;;;21.20;99.90;;;;;;5023711;28;20054;-77
2022/07/26 07:49:33;;;;;;;3.95;0.60;;;21.10;99.90;;;;;;5013038;28;20080;-77
2022/07/26 07:51:59;;;;;;;3.42;0.65;;;20.50;99.90;;;;;;5013246;28;20034;-77
2022/07/26 07:54:24;;;;;;;8.50;1.05;;;20.70;99.90;;;;;;5012239;28;20018;-77
2022/07/26 07:56:51;;;;;;;8.10;1.00;;;20.90;99.90;;;;;;5013052;28;20362;-77
2022/07/26 07:59:16;;;;;;;2.50;0.70;;;21.20;99.90;;;;;;5013306;28;20045;-77
2022/07/26 08:01:42;;;;;;;6.65;1.10;;;20.50;99.90;;;;;;5012851;28;20061;-76
2022/07/26 08:04:08;;;;;;;3.55;0.63;;;20.30;99.90;;;;;;5013119;28;20033;-79
2022/07/26 08:06:34;;;;;;;7.05;0.95;;;20.60;99.90;;;;;;5013321;28;20048;-79
2022/07/26 08:09:00;;;;;;;3.92;0.80;;;20.10;99.90;;;;;;5013313;28;20416;-78
2022/07/26 08:11:26;;;;;;;5.20;0.93;;;19.20;99.90;;;;;;5013369;28;20025;-78
2022/07/26 08:13:52;;;;;;;7.82;1.02;;;18.70;99.90;;;;;;5012289;28;20060;-78
2022/07/26 08:16:17;;;;;;;4.63;1.65;;;18.40;99.90;;;;;;5013954;28;20018;-78
2022/07/26 08:18:43;;;;;;;3.78;1.50;;;18.60;99.90;;;;;;5013564;28;20022;-77
2022/07/26 08:21:08;;;;;;;6.07;0.98;;;19.20;99.90;;;;;;5013785;28;20061;-77
2022/07/26 08:23:34;;;;;;;8.95;1.45;;;19.30;99.90;;;;;;5012826;28;20183;-77
2022/07/26 08:26:00;;;;;;;9.82;1.50;;;20.00;99.90;;;;;;5012737;28;20068;-77
2022/07/26 08:28:29;;;;;;;10.40;1.65;;;20.40;99.90;;;;;;5012982;28;20026;-76
2022/07/26 08:30:54;;;;;;;9.30;1.67;;;20.60;99.90;;;;;;5012819;28;20022;-76
2022/07/26 08:33:20;;;;;;;7.05;1.75;;;21.20;99.90;;;;;;5012248;28;20552;-76
2022/07/26 08:35:46;;;;;;;6.07;1.25;;;21.40;99.90;;;;;;5012651;28;20026;-77
2022/07/26 08:38:12;;;;;;;3.92;0.75;;;22.20;99.90;;;;;;5025787;28;20017;-77
2022/07/26 08:40:37;;;;;;;3.60;1.00;;;22.10;99.90;;;;;;5025912;28;20072;-77
2022/07/26 08:43:03;;;;;;;6.82;0.95;;;21.70;99.90;;;;;;5011570;28;20045;-76
2022/07/26 08:45:30;;;;;;;2.22;0.80;;;21.40;99.90;;;;;;4992930;28;20022;-75
2022/07/26 08:47:58;;;;;;;8.63;1.05;;;20.50;99.90;;;;;;4992866;28;20061;-75
2022/07/26 08:50:24;;;;;;;8.20;1.20;;;19.80;99.90;;;;;;4992649;28;20084;-75
2022/07/26 08:52:50;;;;;;;7.07;1.40;;;19.60;99.90;;;;;;4992335;28;20054;-76
2022/07/26 08:55:19;;;;;;;6.82;1.02;;;19.70;99.90;;;;;;4992727;28;20029;-76
2022/07/26 08:57:45;;;;;;;6.38;1.00;;;19.60;99.90;;;;;;4992722;28;20072;-76
2022/07/26 09:00:21;;;;;;;11.13;1.33;;;19.60;99.90;;;;;;4996349;28;20030;-75
2022/07/26 09:02:47;;;;;;;2.97;0.93;;;19.70;99.90;;;;;;4997573;28;20080;-75
2022/07/26 09:05:13;;;;;;;5.40;1.50;;;20.00;99.90;;;;;;5016291;28;20025;-76
2022/07/26 09:07:40;;;;;;;4.22;1.02;;;20.10;99.90;;;;;;5016144;28;20029;-75
2022/07/26 09:10:11;;;;;;;6.05;1.08;;;19.90;99.90;;;;;;5016300;28;20026;-75
2022/07/26 09:12:38;;;;;;;4.40;0.70;;;19.90;99.90;;;;;;5016310;28;20487;-75
2022/07/26 09:15:07;;;;;;;4.43;0.70;;;19.60;99.90;;;;;;5016171;28;20477;-76
2022/07/26 09:17:41;;;;;;;5.53;1.00;;;19.70;99.90;;;;;;5016069;28;20452;-75
2022/07/26 09:20:10;;;;;;;5.72;1.15;;;19.80;99.90;;;;;;5016489;28;20025;-76
2022/07/26 09:23:06;;;;;;;3.22;0.98;;;19.70;99.90;;;;;;5016049;28;20026;-75
2022/07/26 09:25:40;;;;;;;10.00;1.17;;;19.80;99.90;;;;;;5031153;28;20052;-76
2022/07/26 09:28:22;;;;;;;4.88;1.10;;;20.10;99.90;;;;;;5036047;28;20057;-75
2022/07/26 09:30:57;;;;;;;5.45;1.00;;;20.40;99.90;;;;;;5031249;28;20457;-76
2022/07/26 09:33:23;;;;;;;2.03;0.90;;;21.10;99.90;;;;;;5015652;28;20038;-76
2022/07/26 09:36:05;;;;;;;3.95;0.98;;;21.80;99.90;;;;;;5015860;28;20026;-75
2022/07/26 09:38:39;;;;;;;3.40;0.93;;;22.50;99.90;;;;;;5015560;28;20137;-76
2022/07/26 09:41:23;;;;;;;5.03;0.88;;;23.40;99.90;;;;;;5015929;28;20045;-77
2022/07/26 09:43:50;;;;;;;1.60;0.50;;;24.30;99.90;;;;;;5015925;28;20034;-77
2022/07/26 09:46:17;;;;;;;5.97;0.88;;;23.70;99.90;;;;;;5015792;28;20036;-76
2022/07/26 09:48:43;;;;;;;10.90;1.23;;;22.90;99.90;;;;;;5015555;28;20088;-76
2022/07/26 09:51:09;;;;;;;5.65;0.80;;;23.00;99.90;;;;;;5015521;28;20030;-75
2022/07/26 09:53:44;;;;;;;5.45;1.23;;;22.70;99.90;;;;;;5015433;28;20084;-75
2022/07/26 09:56:10;;;;;;;4.03;0.60;;;22.70;99.90;;;;;;5015610;28;20029;-76
2022/07/26 09:58:37;;;;;;;5.45;0.70;;;22.60;99.90;;;;;;5015423;28;20033;-75
2022/07/26 10:01:06;;;;;;;1.17;0.43;;;22.80;99.90;;;;;;5015439;28;20022;-75
2022/07/26 10:03:33;;;;;;;7.10;1.63;;;22.80;99.90;;;;;;5015236;28;20026;-75
2022/07/26 10:05:59;;;;;;;6.72;0.85;;;23.30;99.90;;;;;;5015231;28;20037;-75
2022/07/26 10:08:26;;;;;;;1.67;0.65;;;26.40;99.90;;;;;;5015241;28;20065;-75
2022/07/26 10:11:03;;;;;;;3.65;0.70;;;25.90;99.90;;;;;;5015050;28;20052;-76
2022/07/26 10:13:29;;;;;;;4.57;0.77;;;25.90;99.90;;;;;;5015066;28;20033;-77
2022/07/26 10:15:55;;;;;;;2.75;0.80;;;25.50;99.90;;;;;;5015167;28;20017;-76
2022/07/26 10:18:36;;;;;;;4.78;0.70;;;25.40;99.90;;;;;;5014958;28;20030;-76
2022/07/26 10:21:19;;;;;;;2.72;0.60;;;25.30;99.90;;;;;;5015144;28;20478;-76
2022/07/26 10:23:50;;;;;;;4.65;0.73;;;24.50;99.90;;;;;;5014913;28;20056;-76
2022/07/26 10:26:30;;;;;;;4.65;0.75;;;23.80;99.90;;;;;;5014832;28;20029;-76
2022/07/26 10:29:18;;;;;;;1.17;0.50;;;25.50;99.90;;;;;;5014806;28;20033;-76
2022/07/26 10:31:47;;;;;;;5.43;0.50;;;24.80;99.90;;;;;;5014935;28;20222;-76
2022/07/26 10:34:33;;;;;;;3.60;0.77;;;25.10;99.90;;;;;;5014381;28;20046;-76
2022/07/26 10:37:02;;;;;;;3.85;0.90;;;25.30;99.90;;;;;;5014686;28;20041;-76
2022/07/26 10:39:27;;;;;;;7.50;1.00;;;25.30;99.90;;;;;;5014489;28;20022;-76
2022/07/26 10:42:10;;;;;;;4.20;0.95;;;24.60;99.90;;;;;;5014639;28;20451;-76
2022/07/26 10:44:41;;;;;;;4.30;0.60;;;27.10;99.90;;;;;;5014602;28;20026;-77
2022/07/26 10:47:06;;;;;;;3.58;0.68;;;29.50;99.90;;;;;;5014644;28;20457;-76
2022/07/26 10:49:51;;;;;;;3.63;0.70;;;27.70;99.90;;;;;;5014359;28;20493;-76
2022/07/26 10:52:19;;;;;;;2.25;0.52;;;28.50;99.90;;;;;;4995288;28;20076;-77
2022/07/26 10:54:59;;;;;;;4.07;0.45;;;32.30;99.90;;;;;;4995793;28;20029;-76
2022/07/26 10:57:30;;;;;;;5.25;0.80;;;32.30;99.90;;;;;;5013491;28;20736;-76
2022/07/26 10:59:57;;;;;;;2.55;0.70;;;28.40;99.90;;;;;;5014182;28;20026;-76
2022/07/26 11:02:27;;;;;;;3.28;0.70;;;28.90;99.90;;;;;;5014341;28;20022;-76
2022/07/26 11:05:00;;;;;;;2.67;1.00;;;27.60;99.90;;;;;;5006105;28;20109;-77
2022/07/26 11:07:29;;;;;;;5.32;0.88;;;27.00;99.90;;;;;;5009639;28;20072;-77
2022/07/26 11:10:00;;;;;;;4.30;0.70;;;31.10;99.90;;;;;;5010103;28;20030;-76
2022/07/26 11:12:25;;;;;;;3.22;0.82;;;30.20;99.90;;;;;;4994363;28;20027;-76
2022/07/26 11:14:53;;;;;;;3.55;0.68;;;29.70;99.90;;;;;;4994425;28;20106;-76
2022/07/26 11:17:23;;;;;;;5.53;0.80;;;30.00;99.90;;;;;;5013827;28;20022;-76
2022/07/26 11:19:49;;;;;;;4.57;0.98;;;27.40;99.90;;;;;;5013827;28;20018;-76
2022/07/26 11:22:14;;;;;;;5.57;1.10;;;26.30;99.90;;;;;;5013285;28;20025;-76
2022/07/26 11:24:40;;;;;;;3.28;0.73;;;26.10;99.90;;;;;;5014375;28;20050;-75
2022/07/26 11:27:05;;;;;;;2.00;0.47;;;25.30;99.90;;;;;;5033526;28;20021;-76
2022/07/26 11:29:33;;;;;;;5.47;0.45;;;25.00;99.90;;;;;;5033594;28;20034;-76
2022/07/26 11:31:59;;;;;;;3.38;0.60;;;24.60;99.90;;;;;;5033646;28;20461;-76
2022/07/26 11:34:32;;;;;;;4.45;0.88;;;24.80;99.90;;;;;;5033269;28;20048;-76
2022/07/26 11:37:00;;;;;;;3.63;0.77;;;25.00;99.90;;;;;;5033700;28;20014;-75
2022/07/26 11:39:34;;;;;;;4.40;0.70;;;24.30;99.90;;;;;;5033337;28;20030;-76
2022/07/26 11:42:02;;;;;;;4.57;0.93;;;25.30;99.90;;;;;;5030918;28;20029;-76
2022/07/26 11:44:28;;;;;;;3.45;1.02;;;24.50;99.90;;;;;;5013465;28;20021;-76
2022/07/26 11:46:56;;;;;;;4.03;0.70;;;24.60;99.90;;;;;;5013359;28;20363;-77
2022/07/26 11:49:27;;;;;;;2.20;0.70;;;24.80;99.90;;;;;;5030964;28;20113;-76
2022/07/26 11:51:58;;;;;;;4.22;0.90;;;24.60;99.90;;;;;;5033202;28;20021;-76
2022/07/26 11:54:28;;;;;;;3.53;0.60;;;24.60;99.90;;;;;;5032982;28;20112;-76
2022/07/26 11:57:02;;;;;;;3.42;0.60;;;24.30;99.90;;;;;;5028783;28;20026;-76
2022/07/26 11:59:30;;;;;;;2.90;1.00;;;24.30;99.90;;;;;;5012546;28;20030;-76
2022/07/26 12:01:57;;;;;;;3.88;0.60;;;24.40;99.90;;;;;;5012948;28;20034;-76
2022/07/26 12:04:29;;;;;;;2.13;0.55;;;24.40;99.90;;;;;;5013002;28;20029;-76
2022/07/26 12:06:57;;;;;;;3.63;0.98;;;24.20;99.90;;;;;;5013014;28;20053;-76
2022/07/26 12:09:39;;;;;;;2.53;0.70;;;24.30;99.90;;;;;;5013079;28;20022;-76
2022/07/26 12:12:08;;;;;;;5.43;0.77;;;24.00;99.90;;;;;;5012953;28;20026;-76
2022/07/26 12:14:36;;;;;;;4.30;0.80;;;24.50;99.90;;;;;;5012987;28;20045;-75
2022/07/26 12:17:15;;;;;;;1.40;0.40;;;24.40;99.90;;;;;;5012985;28;20080;-76
2022/07/26 12:19:42;;;;;;;3.42;0.70;;;24.10;99.90;;;;;;4993431;28;20022;-76
2022/07/26 12:22:19;;;;;;;5.63;0.68;;;24.60;99.90;;;;;;5007152;28;20018;-76
2022/07/26 12:24:50;;;;;;;6.18;0.90;;;24.00;99.90;;;;;;5012918;28;20037;-76
2022/07/26 12:27:27;;;;;;;6.50;0.90;;;24.10;99.90;;;;;;5012713;28;20018;-76
2022/07/26 12:29:55;;;;;;;4.85;1.00;;;24.30;99.90;;;;;;5012639;28;20029;-77
2022/07/26 12:32:42;;;;;;;3.20;0.65;;;24.00;99.90;;;;;;5011770;28;20033;-76
2022/07/26 12:35:14;;;;;;;2.70;0.57;;;24.40;99.90;;;;;;5012585;28;20033;-76
2022/07/26 12:37:45;;;;;;;3.72;0.60;;;24.50;99.90;;;;;;5004768;28;20382;-76
2022/07/26 12:40:17;;;;;;;2.88;0.68;;;24.20;99.90;;;;;;5012696;28;20124;-77
2022/07/26 12:42:53;;;;;;;8.40;0.70;;;24.00;99.90;;;;;;5012675;28;20022;-76
2022/07/26 12:45:24;;;;;;;4.63;0.70;;;23.70;99.90;;;;;;5012500;28;20030;-76
2022/07/26 12:47:53;;;;;;;2.17;0.60;;;23.50;99.90;;;;;;5012463;28;20025;-76
2022/07/26 12:50:22;;;;;;;1.00;0.33;;;24.10;99.90;;;;;;5018542;28;20124;-76
2022/07/26 12:52:49;;;;;;;1.27;0.70;;;25.20;99.90;;;;;;5018878;28;20477;-76
2022/07/26 12:55:17;;;;;;;3.45;0.57;;;24.40;99.90;;;;;;5012520;28;20105;-77
2022/07/26 12:57:44;;;;;;;2.83;0.52;;;24.70;99.90;;;;;;5012534;28;20022;-76